Huntingburg (HNB)

 

Airport Diagram
No Airport Diagram Available
Current Weather/Forecast (IFR Conditions)
METAR KHNB 252256Z AUTO 07006KT 10SM -RA OVC007 03/03 A2967 RMK AO2 LTG DSNT NE RAB07 SLP050 P0001 T00330033
TAF KHNB 251731Z 2518/2618 06012KT 3SM RA BR OVC007 FM252000 08011G17KT 3SM -SHRA VCTS BKN006CB FM260000 08008KT 4SM -SHRA BR OVC006 FM260600 23008KT 1SM BR OVC004 FM261400 24010KT 4SM BR BKN004

Airport Information

All Charts
General
Chart Name View
TAKEOFF MINIMUMS
ALTERNATE MINIMUMS
TAKEOFF MINIMUMS
ALTERNATE MINIMUMS

Approaches
Chart Name Download
RNAV (GPS) RWY 09
RNAV (GPS) RWY 27
RNAV (GPS) RWY 09
RNAV (GPS) RWY 27


Airport Statistics
Departures Arrivals Local
All Collected Stats since June 2016: 6 3 0
2021 Stats: 0 0 0
January Stats: 0 0 0

Inbound Traffic (Arrivals) - 0

No inbound traffic.


Outbound Traffic (Departures) - 0

No outbound traffic.


Local Traffic (Pattern) - 0

No local traffic.